Time;durP1;ratioP1;P1;durP2;ratioP2;P2;SDS_P1;SDS_P2;PMS_P1;PMS_P2;Temp;Humidity;BMP_temperature;BMP_pressure;BME280_temperature;BME280_humidity;BME280_pressure;Samples;Min_cycle;Max_cycle;Signal;HPM_P1;HPM_P2
2024/03/08 00:01:53;;;;;;;16.27;9.60;;;4.70;99.90;;;;;;4163881;28;20025;-52
2024/03/08 00:03:54;;;;;;;20.77;10.40;;;4.70;99.90;;;;;;4162691;28;20303;-55
2024/03/08 00:05:56;;;;;;;17.47;10.37;;;4.70;99.90;;;;;;4163400;28;20255;-55
2024/03/08 00:07:57;;;;;;;19.03;9.70;;;4.70;99.90;;;;;;4162927;28;20259;-54
2024/03/08 00:09:58;;;;;;;19.97;9.07;;;4.60;99.90;;;;;;4163217;28;20690;-54
2024/03/08 00:12:00;;;;;;;18.70;10.07;;;4.60;99.90;;;;;;4163267;28;20301;-56
2024/03/08 00:14:01;;;;;;;20.70;10.70;;;4.60;99.90;;;;;;4163637;28;20255;-54
2024/03/08 00:16:03;;;;;;;17.80;9.90;;;4.60;99.90;;;;;;4163564;28;20313;-51
2024/03/08 00:18:04;;;;;;;16.70;10.27;;;4.60;99.90;;;;;;4163069;28;20255;-51
2024/03/08 00:20:08;;;;;;;18.80;10.50;;;4.60;99.90;;;;;;4163426;28;20278;-55
2024/03/08 00:22:11;;;;;;;20.10;10.77;;;4.60;99.90;;;;;;4161540;28;21766;-54
2024/03/08 00:24:12;;;;;;;19.23;10.03;;;4.50;99.90;;;;;;4163024;28;20310;-51
2024/03/08 00:26:14;;;;;;;17.80;9.80;;;4.60;99.90;;;;;;4161315;28;20294;-53
2024/03/08 00:28:16;;;;;;;21.03;11.30;;;4.50;99.90;;;;;;4163570;28;20329;-52
2024/03/08 00:30:18;;;;;;;21.13;11.63;;;4.50;99.90;;;;;;4163002;28;20374;-53
2024/03/08 00:32:19;;;;;;;21.70;10.03;;;4.50;99.90;;;;;;4163882;28;20596;-58
2024/03/08 00:34:20;;;;;;;18.63;10.93;;;4.50;99.90;;;;;;4162670;28;20674;-56
2024/03/08 00:36:22;;;;;;;19.93;10.67;;;4.50;99.90;;;;;;4162924;28;20433;-56
2024/03/08 00:38:23;;;;;;;19.90;10.67;;;4.50;99.90;;;;;;4162407;28;20216;-50
2024/03/08 00:40:24;;;;;;;19.17;10.03;;;4.50;99.90;;;;;;4162656;28;20906;-56
2024/03/08 00:42:25;;;;;;;20.83;10.53;;;4.50;99.90;;;;;;4162264;28;20258;-53
2024/03/08 00:44:27;;;;;;;18.13;9.77;;;4.50;99.90;;;;;;4162888;28;20294;-55
2024/03/08 00:46:29;;;;;;;21.10;10.73;;;4.40;99.90;;;;;;4162380;28;20313;-54
2024/03/08 00:48:31;;;;;;;23.63;11.30;;;4.40;99.90;;;;;;4161936;28;20325;-58
2024/03/08 00:50:33;;;;;;;19.43;10.57;;;4.40;99.90;;;;;;4161909;28;20332;-54
2024/03/08 00:52:35;;;;;;;20.73;10.50;;;4.40;99.90;;;;;;4162227;28;20743;-54
2024/03/08 00:54:36;;;;;;;20.40;10.50;;;4.40;99.90;;;;;;4163600;28;21121;-58
2024/03/08 00:56:39;;;;;;;19.33;11.20;;;4.40;99.90;;;;;;4160911;28;20358;-55
2024/03/08 00:58:40;;;;;;;18.67;10.67;;;4.40;99.90;;;;;;4162970;28;20755;-56
2024/03/08 01:00:41;;;;;;;19.77;10.37;;;4.40;99.90;;;;;;4161268;28;20279;-56
2024/03/08 01:02:43;;;;;;;24.03;11.47;;;4.40;99.90;;;;;;4162804;28;20333;-57
2024/03/08 01:04:44;;;;;;;18.67;10.23;;;4.40;99.90;;;;;;4161917;28;20364;-56
2024/03/08 01:06:47;;;;;;;27.13;12.37;;;4.40;99.90;;;;;;4162019;28;20352;-53
2024/03/08 01:08:48;;;;;;;22.87;10.80;;;4.40;99.90;;;;;;4161575;28;20251;-55
2024/03/08 01:10:50;;;;;;;22.10;11.10;;;4.40;99.90;;;;;;4162071;28;20271;-57
2024/03/08 01:12:51;;;;;;;19.77;11.30;;;4.40;99.90;;;;;;4161913;28;20037;-56
2024/03/08 01:14:53;;;;;;;22.07;10.77;;;4.40;99.90;;;;;;4162727;28;20313;-56
2024/03/08 01:16:54;;;;;;;19.17;10.40;;;4.50;99.90;;;;;;4162322;28;20627;-55
2024/03/08 01:18:56;;;;;;;23.80;10.80;;;4.40;99.90;;;;;;4161289;28;20589;-54
2024/03/08 01:20:57;;;;;;;20.70;9.77;;;4.40;99.90;;;;;;4162576;28;20270;-58
2024/03/08 01:22:58;;;;;;;20.17;9.33;;;4.40;99.90;;;;;;4162042;28;20340;-56
2024/03/08 01:24:59;;;;;;;24.43;11.83;;;4.40;99.90;;;;;;4162344;28;20294;-57
2024/03/08 01:27:02;;;;;;;19.13;10.07;;;4.50;99.90;;;;;;4161853;28;20743;-56
2024/03/08 01:29:03;;;;;;;22.50;10.83;;;4.40;99.90;;;;;;4162516;28;20285;-56
2024/03/08 01:31:05;;;;;;;19.43;10.27;;;4.40;99.90;;;;;;4161964;28;20262;-59
2024/03/08 01:33:07;;;;;;;21.60;10.67;;;4.40;99.90;;;;;;4162541;28;20276;-57
2024/03/08 01:35:09;;;;;;;20.33;11.13;;;4.40;99.90;;;;;;4161100;28;20283;-52
2024/03/08 01:37:10;;;;;;;19.63;10.17;;;4.40;99.90;;;;;;4162811;28;20262;-57
2024/03/08 01:39:12;;;;;;;19.87;10.33;;;4.40;99.90;;;;;;4160631;28;20298;-55
2024/03/08 01:41:14;;;;;;;22.67;11.47;;;4.40;99.90;;;;;;4162157;28;20393;-52
2024/03/08 01:43:28;;;;;;;19.17;10.40;;;4.40;99.90;;;;;;4161253;28;20267;-54
2024/03/08 01:45:30;;;;;;;21.90;10.93;;;4.40;99.90;;;;;;4162821;28;20294;-57
2024/03/08 01:47:32;;;;;;;22.27;10.50;;;4.40;99.90;;;;;;4161463;28;21003;-57
2024/03/08 01:49:34;;;;;;;23.97;9.90;;;4.40;99.90;;;;;;4161766;28;20824;-54
2024/03/08 01:51:35;;;;;;;19.47;10.47;;;4.40;99.90;;;;;;4161306;28;20337;-59
2024/03/08 01:53:36;;;;;;;19.00;9.60;;;4.40;99.90;;;;;;4161652;28;20274;-56
2024/03/08 01:55:39;;;;;;;19.20;9.63;;;4.40;99.90;;;;;;4161138;28;20271;-54
2024/03/08 01:57:40;;;;;;;17.83;9.70;;;4.30;99.90;;;;;;4161049;28;20766;-57
2024/03/08 01:59:42;;;;;;;19.13;10.03;;;4.30;99.90;;;;;;4162345;28;20267;-55
2024/03/08 02:01:43;;;;;;;21.80;11.00;;;4.30;99.90;;;;;;4159954;28;20266;-57
2024/03/08 02:03:44;;;;;;;21.80;11.00;;;4.30;99.90;;;;;;4161623;28;20828;-56
2024/03/08 02:05:46;;;;;;;21.60;10.27;;;4.30;99.90;;;;;;4161315;28;20316;-55
2024/03/08 02:07:47;;;;;;;21.27;11.13;;;4.30;99.90;;;;;;4162590;28;20267;-56
2024/03/08 02:09:48;;;;;;;22.97;11.27;;;4.30;99.90;;;;;;4160721;28;20412;-54
2024/03/08 02:11:50;;;;;;;20.30;10.20;;;4.30;99.90;;;;;;4161120;28;20287;-55
2024/03/08 02:13:51;;;;;;;19.20;9.27;;;4.30;99.90;;;;;;4161389;28;20267;-51
2024/03/08 02:15:52;;;;;;;22.97;10.40;;;4.30;99.90;;;;;;4162725;28;20309;-54
2024/03/08 02:17:54;;;;;;;22.97;10.50;;;4.20;99.90;;;;;;4160137;28;20365;-56
2024/03/08 02:19:55;;;;;;;17.97;9.50;;;4.20;99.90;;;;;;4161918;28;20289;-52
2024/03/08 02:21:57;;;;;;;18.77;9.53;;;4.20;99.90;;;;;;4161973;28;20255;-56
2024/03/08 02:23:59;;;;;;;17.67;9.63;;;4.20;99.90;;;;;;4161851;28;20255;-53
2024/03/08 02:26:00;;;;;;;20.13;10.57;;;4.20;99.90;;;;;;4161165;28;20282;-56
2024/03/08 02:28:02;;;;;;;20.63;10.33;;;4.20;99.90;;;;;;4160309;28;20317;-54
2024/03/08 02:30:05;;;;;;;21.73;11.17;;;4.20;99.90;;;;;;4161893;28;20255;-56
2024/03/08 02:32:06;;;;;;;21.73;10.33;;;4.20;99.90;;;;;;4160600;28;20316;-55
2024/03/08 02:34:07;;;;;;;21.20;9.90;;;4.20;99.90;;;;;;4161574;28;20662;-53
2024/03/08 02:36:09;;;;;;;19.70;10.87;;;4.20;99.90;;;;;;4161402;28;20267;-53
2024/03/08 02:38:10;;;;;;;17.03;10.07;;;4.20;99.90;;;;;;4161897;28;20340;-52
2024/03/08 02:40:12;;;;;;;21.93;10.53;;;4.10;99.90;;;;;;4159000;28;20314;-50
2024/03/08 02:42:13;;;;;;;17.97;9.43;;;4.10;99.90;;;;;;4161407;28;20275;-55
2024/03/08 02:44:14;;;;;;;19.10;10.40;;;4.10;99.90;;;;;;4159382;28;20737;-56
2024/03/08 02:46:16;;;;;;;23.83;11.67;;;4.10;99.90;;;;;;4162026;28;20271;-57
2024/03/08 02:48:17;;;;;;;23.63;11.63;;;4.10;99.90;;;;;;4160404;28;20662;-53
2024/03/08 02:50:18;;;;;;;18.20;10.20;;;4.10;99.90;;;;;;4160891;28;20271;-55
2024/03/08 02:52:21;;;;;;;20.80;9.77;;;4.10;99.90;;;;;;4160477;28;20263;-53
2024/03/08 02:54:22;;;;;;;24.37;10.47;;;4.10;99.90;;;;;;4161331;28;20674;-56
2024/03/08 02:56:24;;;;;;;21.93;9.93;;;4.00;99.90;;;;;;4161072;28;20254;-56
2024/03/08 02:58:25;;;;;;;24.53;9.47;;;4.00;99.90;;;;;;4160446;28;20400;-56
2024/03/08 03:00:26;;;;;;;20.90;10.30;;;4.00;99.90;;;;;;4161568;28;20267;-55
2024/03/08 03:02:28;;;;;;;23.67;11.43;;;4.00;99.90;;;;;;4160827;28;20270;-55
2024/03/08 03:04:29;;;;;;;22.73;10.87;;;4.00;99.90;;;;;;4161563;28;21025;-53
2024/03/08 03:06:31;;;;;;;22.23;11.03;;;4.00;99.90;;;;;;4160506;28;20278;-56
2024/03/08 03:08:32;;;;;;;21.50;11.23;;;4.00;99.90;;;;;;4162086;28;20616;-56
2024/03/08 03:10:33;;;;;;;22.50;10.87;;;4.00;99.90;;;;;;4160396;28;20283;-52
2024/03/08 03:12:34;;;;;;;23.03;11.13;;;4.00;99.90;;;;;;4161581;28;20278;-55
2024/03/08 03:14:38;;;;;;;24.33;11.63;;;4.00;99.90;;;;;;4158542;28;20337;-55
2024/03/08 03:16:39;;;;;;;23.20;10.53;;;4.00;99.90;;;;;;4160937;28;20771;-53
2024/03/08 03:18:40;;;;;;;24.70;10.77;;;3.90;99.90;;;;;;4159397;28;20356;-54
2024/03/08 03:20:42;;;;;;;24.27;11.40;;;4.00;99.90;;;;;;4161122;28;20282;-53
2024/03/08 03:22:47;;;;;;;19.93;10.30;;;4.00;99.90;;;;;;4159314;28;20325;-55
2024/03/08 03:24:48;;;;;;;22.17;10.87;;;3.90;99.90;;;;;;4160813;28;20290;-53
2024/03/08 03:26:50;;;;;;;26.03;11.47;;;3.90;99.90;;;;;;4160084;28;20282;-55
2024/03/08 03:28:51;;;;;;;21.27;11.07;;;3.90;99.90;;;;;;4160538;28;20263;-54
2024/03/08 03:30:54;;;;;;;21.50;10.77;;;4.00;99.90;;;;;;4161220;28;20801;-51
2024/03/08 03:32:56;;;;;;;22.43;10.53;;;3.90;99.90;;;;;;4160523;28;20433;-55
2024/03/08 03:34:58;;;;;;;21.80;11.23;;;3.90;99.90;;;;;;4143014;28;20752;-51
2024/03/08 03:37:00;;;;;;;21.47;12.03;;;3.90;99.90;;;;;;4159694;28;20259;-51
2024/03/08 03:39:10;;;;;;;22.43;10.53;;;3.90;99.90;;;;;;4161333;28;20325;-54
2024/03/08 03:41:11;;;;;;;23.15;10.40;;;3.90;99.90;;;;;;4159896;28;20309;-53
2024/03/08 03:43:12;;;;;;;20.83;10.20;;;3.90;99.90;;;;;;4161579;28;20026;-56
2024/03/08 03:45:14;;;;;;;20.97;10.17;;;3.90;99.90;;;;;;4158853;28;20303;-54
2024/03/08 03:47:16;;;;;;;24.83;11.37;;;3.80;99.90;;;;;;4160916;28;20278;-51
2024/03/08 03:49:17;;;;;;;22.13;10.27;;;3.80;99.90;;;;;;4160171;28;20271;-56
2024/03/08 03:51:20;;;;;;;21.83;11.27;;;3.80;99.90;;;;;;4143471;28;20279;-52
2024/03/08 03:53:21;;;;;;;20.23;10.53;;;3.80;99.90;;;;;;4160302;28;20366;-52
2024/03/08 03:55:22;;;;;;;26.27;11.77;;;3.80;99.90;;;;;;4159510;28;20321;-62
2024/03/08 03:57:23;;;;;;;20.83;10.23;;;3.90;99.90;;;;;;4159753;28;20259;-58
2024/03/08 03:59:25;;;;;;;24.03;11.37;;;3.90;99.90;;;;;;4160903;28;20274;-55
2024/03/08 04:01:26;;;;;;;22.40;11.43;;;3.90;99.90;;;;;;4159934;28;20255;-54
2024/03/08 04:03:28;;;;;;;25.37;11.93;;;3.90;99.90;;;;;;4160138;28;20320;-51
2024/03/08 04:05:29;;;;;;;26.67;11.57;;;3.90;99.90;;;;;;4160055;28;20727;-56
2024/03/08 04:07:30;;;;;;;22.43;10.57;;;3.80;99.90;;;;;;4160195;28;20332;-57
2024/03/08 04:09:31;;;;;;;22.73;10.57;;;3.80;99.90;;;;;;4160153;28;20271;-56
2024/03/08 04:11:33;;;;;;;23.53;11.13;;;3.80;99.90;;;;;;4158907;28;20262;-55
2024/03/08 04:13:35;;;;;;;24.23;11.23;;;3.80;99.90;;;;;;4161300;28;20258;-50
2024/03/08 04:15:37;;;;;;;26.50;12.33;;;3.80;99.90;;;;;;4159768;28;20682;-57
2024/03/08 04:17:39;;;;;;;21.40;11.10;;;3.80;99.90;;;;;;4160633;28;20324;-55
2024/03/08 04:19:40;;;;;;;22.63;11.77;;;3.90;99.90;;;;;;4159702;28;20255;-54
2024/03/08 04:21:42;;;;;;;24.30;11.00;;;3.80;99.90;;;;;;4161314;28;20259;-53
2024/03/08 04:23:45;;;;;;;23.77;11.63;;;3.80;99.90;;;;;;4159289;28;20278;-53
2024/03/08 04:25:46;;;;;;;21.80;9.70;;;3.90;99.90;;;;;;4162193;28;20799;-57
2024/03/08 04:27:49;;;;;;;23.97;10.90;;;3.90;99.90;;;;;;4144743;28;20767;-54
2024/03/08 04:29:50;;;;;;;20.73;10.77;;;3.90;99.90;;;;;;4163674;28;20271;-53
2024/03/08 04:31:54;;;;;;;24.77;11.33;;;3.90;99.90;;;;;;4163032;28;20336;-53
2024/03/08 04:33:55;;;;;;;23.83;11.07;;;3.90;99.90;;;;;;4162442;28;20321;-54
2024/03/08 04:35:56;;;;;;;24.60;12.17;;;3.90;99.90;;;;;;4163436;28;20266;-56
2024/03/08 04:37:58;;;;;;;19.97;10.47;;;3.90;99.90;;;;;;4162224;28;20324;-50
2024/03/08 04:39:59;;;;;;;22.20;11.13;;;3.90;99.90;;;;;;4162766;28;20279;-59
2024/03/08 04:42:09;;;;;;;25.77;11.53;;;3.90;99.90;;;;;;4162641;28;20789;-57
2024/03/08 04:44:12;;;;;;;23.90;10.07;;;3.90;99.90;;;;;;4163662;28;20274;-55
2024/03/08 04:46:13;;;;;;;21.97;11.03;;;3.90;99.90;;;;;;4161480;28;20107;-57
2024/03/08 04:48:15;;;;;;;20.90;11.67;;;3.90;99.90;;;;;;4163254;28;20817;-54
2024/03/08 04:50:16;;;;;;;23.03;12.17;;;3.90;99.90;;;;;;4161736;28;20758;-55
2024/03/08 04:52:17;;;;;;;19.67;10.27;;;3.90;99.90;;;;;;4162342;28;20674;-51
2024/03/08 04:54:19;;;;;;;21.97;10.87;;;3.90;99.90;;;;;;4161285;28;20297;-52
2024/03/08 04:56:21;;;;;;;25.37;11.50;;;3.90;99.90;;;;;;4162783;28;20279;-57
2024/03/08 04:58:22;;;;;;;24.60;12.30;;;3.90;99.90;;;;;;4161524;28;20364;-57
2024/03/08 05:00:23;;;;;;;26.27;11.87;;;3.90;99.90;;;;;;4162537;28;20667;-57
2024/03/08 05:02:25;;;;;;;22.90;11.23;;;3.90;99.90;;;;;;4161188;28;20254;-56
2024/03/08 05:04:26;;;;;;;23.47;11.30;;;4.00;99.90;;;;;;4162386;28;20353;-52
2024/03/08 05:06:28;;;;;;;25.90;11.97;;;3.90;99.90;;;;;;4161964;28;20294;-55
2024/03/08 05:08:30;;;;;;;24.17;11.50;;;3.90;99.90;;;;;;4161406;28;20345;-51
2024/03/08 05:10:31;;;;;;;34.80;10.73;;;3.90;99.90;;;;;;4161776;28;20041;-54
2024/03/08 05:12:33;;;;;;;28.63;12.60;;;3.90;99.90;;;;;;4162109;28;20259;-56
2024/03/08 05:14:34;;;;;;;28.90;12.43;;;3.90;99.90;;;;;;4162418;28;20278;-53
2024/03/08 05:16:36;;;;;;;29.23;12.50;;;3.90;99.90;;;;;;4161377;28;20266;-55
2024/03/08 05:18:37;;;;;;;22.33;11.60;;;3.90;99.90;;;;;;4162850;28;20801;-54
2024/03/08 05:20:39;;;;;;;24.60;11.73;;;3.90;99.90;;;;;;4161067;28;20817;-55
2024/03/08 05:22:40;;;;;;;26.93;12.23;;;3.90;99.90;;;;;;4162289;28;20286;-57
2024/03/08 05:24:42;;;;;;;25.63;11.83;;;3.90;99.90;;;;;;4161559;28;20271;-59
2024/03/08 05:26:44;;;;;;;27.30;12.87;;;3.90;99.90;;;;;;4162036;28;20282;-54
2024/03/08 05:28:46;;;;;;;26.13;12.63;;;3.80;99.90;;;;;;4161345;28;20286;-59
2024/03/08 05:30:48;;;;;;;29.17;12.07;;;3.90;99.90;;;;;;4162050;28;20279;-53
2024/03/08 05:32:49;;;;;;;23.47;10.93;;;3.90;99.90;;;;;;4160638;28;20353;-57
2024/03/08 05:34:50;;;;;;;27.20;12.47;;;3.90;99.90;;;;;;4144654;28;20271;-54
2024/03/08 05:36:54;;;;;;;24.07;11.83;;;3.80;99.90;;;;;;4161682;28;20742;-56
2024/03/08 05:38:55;;;;;;;28.70;14.53;;;3.90;99.90;;;;;;4161299;28;20762;-54
2024/03/08 05:40:56;;;;;;;29.23;13.43;;;3.90;99.90;;;;;;4161429;28;20739;-57
2024/03/08 05:42:59;;;;;;;29.20;14.00;;;3.90;99.90;;;;;;4161480;28;20275;-58
2024/03/08 05:45:01;;;;;;;33.37;14.50;;;4.00;99.90;;;;;;4161140;28;20295;-58
2024/03/08 05:47:02;;;;;;;26.63;12.97;;;4.00;99.90;;;;;;4161111;28;20266;-56
2024/03/08 05:49:07;;;;;;;31.10;12.53;;;4.00;99.90;;;;;;4162034;28;21179;-52
2024/03/08 05:51:08;;;;;;;24.73;11.47;;;4.00;99.90;;;;;;4160764;28;20317;-53
2024/03/08 05:53:09;;;;;;;23.07;10.97;;;4.10;99.90;;;;;;4161412;28;20275;-59
2024/03/08 05:55:11;;;;;;;25.33;11.50;;;4.10;99.90;;;;;;4160517;28;20283;-53
2024/03/08 05:57:12;;;;;;;21.43;11.53;;;4.20;99.90;;;;;;4161907;28;20259;-54
2024/03/08 05:59:14;;;;;;;22.97;11.57;;;4.20;99.90;;;;;;4160157;28;20275;-53
2024/03/08 06:01:15;;;;;;;25.47;12.00;;;4.20;99.90;;;;;;4161364;28;20279;-55
2024/03/08 06:03:16;;;;;;;32.17;12.60;;;4.30;99.90;;;;;;4161135;28;20378;-57
2024/03/08 06:05:18;;;;;;;24.83;11.20;;;4.30;99.90;;;;;;4161462;28;20778;-51
2024/03/08 06:07:20;;;;;;;25.87;11.70;;;4.20;99.90;;;;;;4161181;28;20325;-56
2024/03/08 06:09:23;;;;;;;22.07;11.63;;;4.20;99.90;;;;;;4161504;28;20263;-58
2024/03/08 06:11:26;;;;;;;24.17;12.07;;;4.20;99.90;;;;;;4160525;28;20317;-57
2024/03/08 06:13:31;;;;;;;25.17;12.67;;;4.20;99.90;;;;;;4160457;28;20282;-57
2024/03/08 06:15:32;;;;;;;25.87;12.40;;;4.20;99.90;;;;;;4160042;28;20581;-53
2024/03/08 06:17:34;;;;;;;24.87;12.97;;;4.20;99.90;;;;;;4158950;28;20763;-57
2024/03/08 06:19:37;;;;;;;24.97;12.63;;;4.30;99.90;;;;;;4161120;28;20279;-58
2024/03/08 06:21:38;;;;;;;24.53;11.90;;;4.30;99.90;;;;;;4160750;28;20282;-60
2024/03/08 06:23:40;;;;;;;32.63;12.27;;;4.30;99.90;;;;;;4161631;28;20266;-55
2024/03/08 06:25:41;;;;;;;25.30;12.00;;;4.40;99.90;;;;;;4160385;28;20364;-57
2024/03/08 06:27:43;;;;;;;32.00;12.37;;;4.40;99.90;;;;;;4160577;28;20762;-53
2024/03/08 06:29:45;;;;;;;22.83;11.63;;;4.40;99.90;;;;;;4159799;28;20344;-58
2024/03/08 06:31:46;;;;;;;25.10;11.50;;;4.40;99.90;;;;;;4161092;28;20268;-53
2024/03/08 06:33:49;;;;;;;27.13;12.93;;;4.50;99.90;;;;;;4160411;28;20297;-60
2024/03/08 06:35:51;;;;;;;25.63;12.63;;;4.50;99.90;;;;;;4161672;28;20286;-52
2024/03/08 06:37:52;;;;;;;27.07;11.47;;;4.60;99.90;;;;;;4160209;28;20259;-54
2024/03/08 06:39:55;;;;;;;25.77;11.53;;;4.60;99.90;;;;;;4160748;28;20267;-54
2024/03/08 06:41:56;;;;;;;23.27;10.67;;;4.60;99.90;;;;;;4160522;28;20468;-58
2024/03/08 06:43:59;;;;;;;22.50;11.27;;;4.60;99.90;;;;;;4161163;28;20267;-57
2024/03/08 06:46:00;;;;;;;23.13;11.27;;;4.60;99.90;;;;;;4159868;28;20299;-56
2024/03/08 06:48:02;;;;;;;20.70;10.70;;;4.60;99.90;;;;;;4159558;28;20111;-58
2024/03/08 06:50:04;;;;;;;24.37;11.13;;;4.70;99.90;;;;;;4159015;28;20262;-58
2024/03/08 06:52:06;;;;;;;24.97;12.13;;;4.70;99.90;;;;;;4160512;28;20259;-57
2024/03/08 06:54:08;;;;;;;22.47;10.77;;;4.70;99.90;;;;;;4160097;28;20087;-57
2024/03/08 06:56:09;;;;;;;27.77;12.40;;;4.80;99.90;;;;;;4159093;28;20091;-55
2024/03/08 06:58:11;;;;;;;26.00;12.30;;;4.80;99.90;;;;;;4161259;28;20034;-53
2024/03/08 07:00:18;;;;;;;23.80;11.60;;;4.80;99.90;;;;;;4160126;28;20429;-55
2024/03/08 07:02:19;;;;;;;57.77;19.67;;;4.80;99.90;;;;;;4160528;28;20091;-58
2024/03/08 07:04:21;;;;;;;31.83;13.93;;;4.90;99.90;;;;;;4159243;28;20037;-54
2024/03/08 07:06:23;;;;;;;26.37;11.20;;;4.90;99.90;;;;;;4160175;28;20111;-58
2024/03/08 07:08:24;;;;;;;24.07;11.93;;;5.00;99.90;;;;;;4141649;28;20049;-59
2024/03/08 07:10:26;;;;;;;26.17;12.77;;;5.00;99.90;;;;;;4160052;28;20095;-59
2024/03/08 07:12:27;;;;;;;25.20;10.90;;;5.10;99.90;;;;;;4159133;28;20107;-56
2024/03/08 07:14:28;;;;;;;21.90;11.50;;;5.10;99.90;;;;;;4160370;28;20042;-56
2024/03/08 07:16:30;;;;;;;22.50;11.50;;;5.10;99.90;;;;;;4160307;28;20033;-56
2024/03/08 07:18:31;;;;;;;20.60;11.40;;;5.20;99.90;;;;;;4160987;28;20051;-55
2024/03/08 07:20:32;;;;;;;25.50;12.10;;;5.20;99.90;;;;;;4160215;28;20041;-56
2024/03/08 07:22:34;;;;;;;30.93;13.23;;;5.30;99.90;;;;;;4159741;28;20049;-56
2024/03/08 07:25:39;;;;;;;25.70;13.33;;;5.30;99.90;;;;;;4159883;28;20095;-55
2024/03/08 07:27:08;;;;;;;25.50;12.87;;;5.40;99.90;;;;;;4138781;28;20053;-56
2024/03/08 07:29:09;;;;;;;24.80;12.43;;;5.40;99.90;;;;;;4159199;28;20091;-54
2024/03/08 07:33:12;;;;;;;22.40;11.37;;;5.50;99.90;;;;;;4160414;28;20383;-61
2024/03/08 07:35:13;;;;;;;23.57;11.80;;;5.40;99.90;;;;;;4159808;28;20560;-57
2024/03/08 07:37:14;;;;;;;19.87;11.77;;;5.50;99.90;;;;;;4159924;28;20091;-57
2024/03/08 07:39:16;;;;;;;23.60;12.07;;;5.60;99.90;;;;;;4158782;28;20096;-58
2024/03/08 07:41:17;;;;;;;22.30;11.83;;;5.60;99.90;;;;;;4159783;28;20142;-55
2024/03/08 07:43:18;;;;;;;24.03;10.87;;;5.70;99.90;;;;;;4158893;28;20082;-57
2024/03/08 07:45:21;;;;;;;28.40;12.93;;;5.80;99.90;;;;;;4160218;28;20095;-57
2024/03/08 07:47:23;;;;;;;21.93;12.57;;;5.90;99.90;;;;;;4159216;28;20108;-58
2024/03/08 07:49:24;;;;;;;23.13;13.10;;;6.10;99.90;;;;;;4160763;28;20099;-56
2024/03/08 07:51:26;;;;;;;28.53;14.07;;;6.10;99.90;;;;;;4158921;28;20042;-56
2024/03/08 07:53:27;;;;;;;39.83;17.77;;;6.20;99.90;;;;;;4160822;28;20958;-54
2024/03/08 07:55:30;;;;;;;27.07;12.47;;;6.10;99.90;;;;;;4158761;28;20087;-57
2024/03/08 07:57:33;;;;;;;28.70;11.70;;;6.10;99.90;;;;;;4160205;28;20410;-56
2024/03/08 07:59:34;;;;;;;24.07;11.57;;;6.10;99.90;;;;;;4158974;28;20103;-58
2024/03/08 08:01:35;;;;;;;22.40;11.27;;;6.10;99.90;;;;;;4162818;28;20099;-56
2024/03/08 08:03:37;;;;;;;25.30;11.93;;;6.20;99.90;;;;;;4162353;28;20095;-57
2024/03/08 08:05:39;;;;;;;23.83;11.90;;;6.20;99.90;;;;;;4162004;28;20386;-57
2024/03/08 08:07:43;;;;;;;23.33;11.43;;;6.10;99.90;;;;;;4163558;28;20547;-57
2024/03/08 08:09:44;;;;;;;28.40;12.63;;;6.00;99.90;;;;;;4161600;28;20087;-58
2024/03/08 08:11:46;;;;;;;22.83;11.37;;;6.00;99.90;;;;;;4162675;28;20083;-58
2024/03/08 08:13:48;;;;;;;22.73;12.30;;;6.00;99.90;;;;;;4161865;28;20437;-57
2024/03/08 08:15:49;;;;;;;24.83;12.37;;;6.10;99.90;;;;;;4163789;28;20911;-58
2024/03/08 08:17:51;;;;;;;26.50;11.93;;;6.00;99.90;;;;;;4161358;28;20045;-56
2024/03/08 08:19:53;;;;;;;24.73;12.37;;;6.00;99.90;;;;;;4163782;28;20033;-55
2024/03/08 08:21:54;;;;;;;28.30;12.93;;;5.90;99.90;;;;;;4161813;28;20037;-57
2024/03/08 08:23:55;;;;;;;25.93;12.07;;;5.90;99.90;;;;;;4163615;28;20034;-58
2024/03/08 08:25:56;;;;;;;26.23;12.97;;;5.90;99.90;;;;;;4161878;28;20045;-55
2024/03/08 08:27:58;;;;;;;27.53;12.60;;;5.80;99.90;;;;;;4162973;28;20324;-60
2024/03/08 08:30:00;;;;;;;22.23;12.70;;;5.70;99.90;;;;;;4161363;28;20034;-56
2024/03/08 08:32:01;;;;;;;29.70;12.57;;;5.70;99.90;;;;;;4161978;28;20111;-58
2024/03/08 08:34:03;;;;;;;31.10;14.10;;;5.80;99.90;;;;;;4161775;28;20083;-56
2024/03/08 08:36:04;;;;;;;25.17;12.37;;;5.80;99.90;;;;;;4162036;28;20041;-57
2024/03/08 08:38:07;;;;;;;28.17;12.33;;;5.90;99.90;;;;;;4162820;28;20091;-54
2024/03/08 08:40:10;;;;;;;22.83;11.47;;;5.90;99.90;;;;;;4161477;28;20041;-58
2024/03/08 08:42:11;;;;;;;29.63;12.13;;;5.90;99.90;;;;;;4162971;28;20029;-56
2024/03/08 08:44:12;;;;;;;26.23;12.43;;;5.90;99.90;;;;;;4161127;28;20038;-56
2024/03/08 08:46:13;;;;;;;25.23;12.53;;;5.90;99.90;;;;;;4163492;28;20132;-55
2024/03/08 08:48:16;;;;;;;23.50;12.13;;;6.00;99.90;;;;;;4161446;28;20041;-57
2024/03/08 08:50:22;;;;;;;31.27;12.00;;;6.00;99.90;;;;;;4162497;28;20037;-56
2024/03/08 08:52:24;;;;;;;27.13;11.80;;;6.10;99.90;;;;;;4161978;28;20117;-53
2024/03/08 08:54:27;;;;;;;20.70;10.93;;;6.00;99.90;;;;;;4162375;28;20037;-52
2024/03/08 08:56:31;;;;;;;26.23;12.70;;;6.00;99.90;;;;;;4160676;28;20160;-56
2024/03/08 08:58:32;;;;;;;26.87;12.87;;;6.10;99.90;;;;;;4161700;28;20556;-56
2024/03/08 09:00:34;;;;;;;25.73;13.07;;;6.10;99.90;;;;;;4160138;28;20136;-57
2024/03/08 09:02:37;;;;;;;22.87;10.63;;;6.20;99.90;;;;;;4161757;28;20115;-57
2024/03/08 09:04:38;;;;;;;24.40;13.07;;;6.20;99.90;;;;;;4160441;28;20095;-57
2024/03/08 09:06:41;;;;;;;21.67;12.07;;;6.10;99.90;;;;;;4161265;28;20068;-57
2024/03/08 09:08:43;;;;;;;24.47;11.93;;;6.10;99.90;;;;;;4162098;28;20056;-58
2024/03/08 09:10:45;;;;;;;25.50;12.47;;;6.20;99.90;;;;;;4160578;28;20506;-56
2024/03/08 09:12:47;;;;;;;21.87;11.83;;;6.30;99.90;;;;;;4162311;28;20045;-59
2024/03/08 09:14:49;;;;;;;25.80;13.13;;;6.20;99.90;;;;;;4161102;28;20432;-57
2024/03/08 09:16:50;;;;;;;22.80;12.40;;;6.20;99.90;;;;;;4161884;28;20559;-60
2024/03/08 09:18:51;;;;;;;24.80;12.90;;;6.20;99.90;;;;;;4160670;28;20084;-56
2024/03/08 09:20:53;;;;;;;29.73;14.53;;;6.20;99.90;;;;;;4162745;28;20033;-57
2024/03/08 09:22:55;;;;;;;31.90;13.17;;;6.30;99.90;;;;;;4160233;28;20551;-58
2024/03/08 09:24:57;;;;;;;26.60;13.40;;;6.40;99.90;;;;;;4161622;28;20395;-57
2024/03/08 09:26:58;;;;;;;26.20;13.17;;;6.40;99.90;;;;;;4161218;28;20049;-59
2024/03/08 09:29:00;;;;;;;28.33;12.67;;;6.40;99.90;;;;;;4161519;28;20037;-55
2024/03/08 09:31:01;;;;;;;26.27;13.23;;;6.50;99.90;;;;;;4160677;28;20088;-58
2024/03/08 09:33:03;;;;;;;23.80;12.50;;;6.60;99.90;;;;;;4162469;28;20029;-59
2024/03/08 09:35:07;;;;;;;24.73;13.20;;;6.70;99.90;;;;;;4160299;28;20485;-57
2024/03/08 09:37:09;;;;;;;25.43;12.97;;;6.50;99.90;;;;;;4162225;28;20752;-57
2024/03/08 09:39:16;;;;;;;26.67;12.57;;;6.40;99.90;;;;;;4161488;28;20094;-58
2024/03/08 09:41:17;;;;;;;21.73;11.83;;;6.40;99.90;;;;;;4160726;28;20038;-59
2024/03/08 09:43:19;;;;;;;27.37;13.43;;;6.40;99.90;;;;;;4160822;28;20041;-56
2024/03/08 09:45:24;;;;;;;27.93;12.50;;;6.40;99.90;;;;;;4160981;28;20037;-57
2024/03/08 09:47:33;;;;;;;25.93;12.43;;;6.40;99.90;;;;;;4161904;28;20045;-57
2024/03/08 09:49:34;;;;;;;29.27;13.63;;;6.50;99.90;;;;;;4160866;28;20147;-58
2024/03/08 09:51:36;;;;;;;30.47;15.10;;;6.40;99.90;;;;;;4161847;28;20037;-56
2024/03/08 09:53:38;;;;;;;20.73;11.60;;;6.50;99.90;;;;;;4160404;28;20037;-57
2024/03/08 09:55:45;;;;;;;30.83;13.13;;;6.60;99.90;;;;;;4160814;28;20037;-55
2024/03/08 09:58:16;;;;;;;27.23;13.73;;;6.60;99.90;;;;;;4160976;28;20543;-58
2024/03/08 10:00:23;;;;;;;31.10;12.97;;;6.70;99.90;;;;;;4161437;28;20095;-54
2024/03/08 10:02:24;;;;;;;26.30;13.43;;;6.80;99.90;;;;;;4160805;28;20485;-58
2024/03/08 10:04:28;;;;;;;31.47;13.60;;;6.90;99.90;;;;;;4161779;28;20087;-57
2024/03/08 10:06:29;;;;;;;24.83;12.20;;;7.00;99.90;;;;;;4160042;28;20049;-58
2024/03/08 10:08:30;;;;;;;26.23;12.37;;;7.00;99.90;;;;;;4161870;28;20025;-55
2024/03/08 10:10:34;;;;;;;21.73;12.27;;;7.00;99.90;;;;;;4159324;28;20107;-57
2024/03/08 10:12:35;;;;;;;25.07;12.17;;;7.10;99.90;;;;;;4161161;28;20037;-56
2024/03/08 10:14:40;;;;;;;22.10;11.93;;;7.10;99.90;;;;;;4159987;28;20093;-58
2024/03/08 10:16:41;;;;;;;29.90;13.27;;;7.10;99.90;;;;;;4161350;28;20053;-59
2024/03/08 10:18:44;;;;;;;25.03;13.10;;;7.20;99.90;;;;;;4159699;28;20045;-57
2024/03/08 10:20:46;;;;;;;25.77;13.33;;;7.30;99.90;;;;;;4161697;28;20462;-58
2024/03/08 10:22:47;;;;;;;25.87;12.73;;;7.50;99.90;;;;;;4158988;28;20049;-59
2024/03/08 10:24:50;;;;;;;32.60;14.30;;;7.70;99.90;;;;;;4161692;28;20478;-57
2024/03/08 10:27:01;;;;;;;27.53;13.23;;;7.80;99.90;;;;;;4159464;28;20095;-57
2024/03/08 10:29:04;;;;;;;29.13;13.50;;;7.90;99.90;;;;;;4160568;28;20095;-57
2024/03/08 10:31:05;;;;;;;26.40;13.10;;;7.80;99.90;;;;;;4159873;28;20437;-59